sensor_id;sensor_type;location;lat;lon;timestamp;pressure;altitude;pressure_sealevel;temperature;humidity
22872;BME280;11603;44.910;8.630;2023-06-19T00:00:07;100557.47;;;22.71;100.00
22872;BME280;11603;44.910;8.630;2023-06-19T00:02:39;100561.88;;;22.72;100.00
22872;BME280;11603;44.910;8.630;2023-06-19T00:05:05;100563.06;;;22.78;100.00
22872;BME280;11603;44.910;8.630;2023-06-19T00:07:30;100571.06;;;22.79;100.00
22872;BME280;11603;44.910;8.630;2023-06-19T00:09:56;100573.44;;;22.83;100.00
22872;BME280;11603;44.910;8.630;2023-06-19T00:12:21;100564.56;;;22.89;100.00
22872;BME280;11603;44.910;8.630;2023-06-19T00:14:47;100572.22;;;22.93;100.00
22872;BME280;11603;44.910;8.630;2023-06-19T00:17:12;100569.81;;;22.98;100.00
22872;BME280;11603;44.910;8.630;2023-06-19T00:19:42;100575.25;;;22.98;100.00
22872;BME280;11603;44.910;8.630;2023-06-19T00:22:08;100564.19;;;23.00;100.00
22872;BME280;11603;44.910;8.630;2023-06-19T00:24:33;100566.91;;;23.00;100.00
22872;BME280;11603;44.910;8.630;2023-06-19T00:26:59;100559.75;;;22.99;100.00
22872;BME280;11603;44.910;8.630;2023-06-19T00:29:29;100558.41;;;23.03;100.00
22872;BME280;11603;44.910;8.630;2023-06-19T00:31:56;100559.22;;;23.03;100.00
22872;BME280;11603;44.910;8.630;2023-06-19T00:34:21;100555.28;;;23.06;100.00
22872;BME280;11603;44.910;8.630;2023-06-19T00:36:50;100568.44;;;23.02;100.00
22872;BME280;11603;44.910;8.630;2023-06-19T00:39:16;100562.31;;;23.00;100.00
22872;BME280;11603;44.910;8.630;2023-06-19T00:41:43;100570.31;;;23.02;100.00
22872;BME280;11603;44.910;8.630;2023-06-19T00:44:10;100573.06;;;23.02;100.00
22872;BME280;11603;44.910;8.630;2023-06-19T00:46:37;100572.53;;;23.06;100.00
22872;BME280;11603;44.910;8.630;2023-06-19T00:49:06;100575.72;;;23.10;100.00
22872;BME280;11603;44.910;8.630;2023-06-19T00:51:32;100574.03;;;23.09;100.00
22872;BME280;11603;44.910;8.630;2023-06-19T00:53:57;100573.19;;;23.08;100.00
22872;BME280;11603;44.910;8.630;2023-06-19T00:56:23;100575.09;;;23.08;100.00
22872;BME280;11603;44.910;8.630;2023-06-19T00:58:49;100581.72;;;23.05;100.00
22872;BME280;11603;44.910;8.630;2023-06-19T01:01:16;100582.75;;;23.04;100.00
22872;BME280;11603;44.910;8.630;2023-06-19T01:03:41;100586.00;;;23.08;100.00
22872;BME280;11603;44.910;8.630;2023-06-19T01:06:13;100586.66;;;23.10;100.00
22872;BME280;11603;44.910;8.630;2023-06-19T01:08:53;100583.91;;;23.10;100.00
22872;BME280;11603;44.910;8.630;2023-06-19T01:11:28;100593.66;;;23.12;100.00
22872;BME280;11603;44.910;8.630;2023-06-19T01:14:04;100585.78;;;23.09;100.00
22872;BME280;11603;44.910;8.630;2023-06-19T01:16:31;100592.78;;;23.12;100.00
22872;BME280;11603;44.910;8.630;2023-06-19T01:19:01;100597.03;;;23.14;100.00
22872;BME280;11603;44.910;8.630;2023-06-19T01:21:28;100599.09;;;23.12;100.00
22872;BME280;11603;44.910;8.630;2023-06-19T01:23:54;100606.59;;;23.10;100.00
22872;BME280;11603;44.910;8.630;2023-06-19T01:26:23;100601.50;;;23.07;100.00
22872;BME280;11603;44.910;8.630;2023-06-19T01:28:51;100603.38;;;23.07;100.00
22872;BME280;11603;44.910;8.630;2023-06-19T01:31:20;100605.44;;;23.05;100.00
22872;BME280;11603;44.910;8.630;2023-06-19T01:33:49;100598.25;;;23.04;100.00
22872;BME280;11603;44.910;8.630;2023-06-19T01:36:17;100608.16;;;23.05;100.00
22872;BME280;11603;44.910;8.630;2023-06-19T01:38:44;100604.41;;;23.06;100.00
22872;BME280;11603;44.910;8.630;2023-06-19T01:41:10;100611.91;;;23.04;100.00
22872;BME280;11603;44.910;8.630;2023-06-19T01:43:37;100608.16;;;23.05;100.00
22872;BME280;11603;44.910;8.630;2023-06-19T01:46:03;100611.91;;;23.04;100.00
22872;BME280;11603;44.910;8.630;2023-06-19T01:48:29;100611.75;;;23.05;100.00
22872;BME280;11603;44.910;8.630;2023-06-19T01:50:55;100616.00;;;23.08;100.00
22872;BME280;11603;44.910;8.630;2023-06-19T01:53:20;100613.63;;;23.05;100.00
22872;BME280;11603;44.910;8.630;2023-06-19T01:55:46;100610.34;;;23.09;100.00
22872;BME280;11603;44.910;8.630;2023-06-19T01:58:11;100611.38;;;23.08;100.00
22872;BME280;11603;44.910;8.630;2023-06-19T02:00:37;100610.03;;;23.04;100.00
22872;BME280;11603;44.910;8.630;2023-06-19T02:03:04;100613.47;;;22.98;100.00
22872;BME280;11603;44.910;8.630;2023-06-19T02:05:32;100605.28;;;22.98;100.00
22872;BME280;11603;44.910;8.630;2023-06-19T02:08:00;100604.25;;;22.99;100.00
22872;BME280;11603;44.910;8.630;2023-06-19T02:10:26;100612.28;;;22.93;100.00
22872;BME280;11603;44.910;8.630;2023-06-19T02:12:51;100604.94;;;22.93;100.00
22872;BME280;11603;44.910;8.630;2023-06-19T02:15:17;100602.59;;;22.90;100.00
22872;BME280;11603;44.910;8.630;2023-06-19T02:17:44;100596.28;;;22.90;100.00
22872;BME280;11603;44.910;8.630;2023-06-19T02:20:10;100599.84;;;22.90;100.00
22872;BME280;11603;44.910;8.630;2023-06-19T02:22:40;100594.06;;;22.85;100.00
22872;BME280;11603;44.910;8.630;2023-06-19T02:25:06;100590.97;;;22.88;100.00
22872;BME280;11603;44.910;8.630;2023-06-19T02:27:31;100587.41;;;22.88;100.00
22872;BME280;11603;44.910;8.630;2023-06-19T02:29:58;100587.06;;;22.83;100.00
22872;BME280;11603;44.910;8.630;2023-06-19T02:32:24;100596.16;;;22.75;100.00
22872;BME280;11603;44.910;8.630;2023-06-19T02:34:50;100610.97;;;22.72;100.00
22872;BME280;11603;44.910;8.630;2023-06-19T02:37:15;100604.66;;;22.64;100.00
22872;BME280;11603;44.910;8.630;2023-06-19T02:39:41;100601.75;;;22.57;100.00
22872;BME280;11603;44.910;8.630;2023-06-19T02:42:07;100609.59;;;22.52;100.00
22872;BME280;11603;44.910;8.630;2023-06-19T02:44:32;100607.91;;;22.43;100.00
22872;BME280;11603;44.910;8.630;2023-06-19T02:46:58;100610.81;;;22.33;100.00
22872;BME280;11603;44.910;8.630;2023-06-19T02:49:23;100625.13;;;22.27;100.00
22872;BME280;11603;44.910;8.630;2023-06-19T02:51:49;100607.22;;;22.25;100.00
22872;BME280;11603;44.910;8.630;2023-06-19T02:54:14;100614.06;;;22.29;100.00
22872;BME280;11603;44.910;8.630;2023-06-19T02:56:41;100613.34;;;22.27;100.00
22872;BME280;11603;44.910;8.630;2023-06-19T02:59:06;100605.69;;;22.22;100.00
22872;BME280;11603;44.910;8.630;2023-06-19T03:01:32;100610.81;;;22.17;100.00
22872;BME280;11603;44.910;8.630;2023-06-19T03:03:59;100612.31;;;22.20;100.00
22872;BME280;11603;44.910;8.630;2023-06-19T03:06:25;100613.72;;;22.24;100.00
22872;BME280;11603;44.910;8.630;2023-06-19T03:08:51;100617.25;;;22.24;100.00
22872;BME280;11603;44.910;8.630;2023-06-19T03:11:17;100622.91;;;22.23;100.00
22872;BME280;11603;44.910;8.630;2023-06-19T03:16:13;100616.09;;;22.19;100.00
22872;BME280;11603;44.910;8.630;2023-06-19T03:18:41;100624.44;;;22.17;100.00
22872;BME280;11603;44.910;8.630;2023-06-19T03:21:07;100624.25;;;22.11;100.00
22872;BME280;11603;44.910;8.630;2023-06-19T03:23:34;100607.56;;;22.06;100.00
22872;BME280;11603;44.910;8.630;2023-06-19T03:26:00;100604.66;;;22.07;100.00
22872;BME280;11603;44.910;8.630;2023-06-19T03:28:26;100598.88;;;22.10;100.00
22872;BME280;11603;44.910;8.630;2023-06-19T03:30:52;100597.84;;;22.11;100.00
22872;BME280;11603;44.910;8.630;2023-06-19T03:33:21;100600.41;;;22.13;100.00
22872;BME280;11603;44.910;8.630;2023-06-19T03:35:47;100603.66;;;22.16;100.00
22872;BME280;11603;44.910;8.630;2023-06-19T03:38:24;100594.13;;;22.12;100.00
22872;BME280;11603;44.910;8.630;2023-06-19T03:40:50;100592.91;;;22.07;100.00
22872;BME280;11603;44.910;8.630;2023-06-19T03:43:16;100592.91;;;22.07;100.00
22872;BME280;11603;44.910;8.630;2023-06-19T03:45:43;100581.84;;;22.08;100.00
22872;BME280;11603;44.910;8.630;2023-06-19T03:48:09;100585.75;;;22.06;100.00
22872;BME280;11603;44.910;8.630;2023-06-19T03:50:34;100584.91;;;22.05;100.00
22872;BME280;11603;44.910;8.630;2023-06-19T03:53:00;100575.03;;;22.04;100.00
22872;BME280;11603;44.910;8.630;2023-06-19T03:55:25;100577.44;;;22.07;100.00
22872;BME280;11603;44.910;8.630;2023-06-19T03:57:51;100572.31;;;22.12;100.00
22872;BME280;11603;44.910;8.630;2023-06-19T04:00:18;100574.19;;;22.12;100.00
22872;BME280;11603;44.910;8.630;2023-06-19T04:02:44;100576.75;;;22.13;100.00
22872;BME280;11603;44.910;8.630;2023-06-19T04:05:12;100582.53;;;22.18;100.00
22872;BME280;11603;44.910;8.630;2023-06-19T04:07:37;100580.31;;;22.22;100.00
22872;BME280;11603;44.910;8.630;2023-06-19T04:10:05;100578.09;;;22.25;100.00
22872;BME280;11603;44.910;8.630;2023-06-19T04:12:31;100586.09;;;22.27;100.00
22872;BME280;11603;44.910;8.630;2023-06-19T04:14:56;100583.53;;;22.25;100.00
22872;BME280;11603;44.910;8.630;2023-06-19T04:17:22;100587.47;;;22.31;100.00
22872;BME280;11603;44.910;8.630;2023-06-19T04:19:48;100578.97;;;22.34;100.00
22872;BME280;11603;44.910;8.630;2023-06-19T04:22:13;100578.28;;;22.32;100.00
22872;BME280;11603;44.910;8.630;2023-06-19T04:24:39;100586.28;;;22.33;100.00
22872;BME280;11603;44.910;8.630;2023-06-19T04:27:05;100585.75;;;22.30;100.00
22872;BME280;11603;44.910;8.630;2023-06-19T04:29:33;100580.13;;;22.31;100.00
22872;BME280;11603;44.910;8.630;2023-06-19T04:31:59;100590.38;;;22.29;100.00
22872;BME280;11603;44.910;8.630;2023-06-19T04:34:25;100599.22;;;22.31;100.00
22872;BME280;11603;44.910;8.630;2023-06-19T04:36:50;100597.19;;;22.33;100.00
22872;BME280;11603;44.910;8.630;2023-06-19T04:39:16;100598.53;;;22.37;100.00
22872;BME280;11603;44.910;8.630;2023-06-19T04:41:45;100602.78;;;22.40;100.00
22872;BME280;11603;44.910;8.630;2023-06-19T04:44:10;100592.72;;;22.40;100.00
22872;BME280;11603;44.910;8.630;2023-06-19T04:46:40;100587.47;;;22.39;100.00
22872;BME280;11603;44.910;8.630;2023-06-19T04:49:07;100597.84;;;22.35;100.00
22872;BME280;11603;44.910;8.630;2023-06-19T04:51:34;100591.56;;;22.27;100.00
22872;BME280;11603;44.910;8.630;2023-06-19T04:54:00;100602.81;;;22.24;100.00
22872;BME280;11603;44.910;8.630;2023-06-19T04:56:25;100598.03;;;22.18;100.00
22872;BME280;11603;44.910;8.630;2023-06-19T04:58:51;100600.22;;;22.14;100.00
22872;BME280;11603;44.910;8.630;2023-06-19T05:01:17;100603.31;;;22.11;100.00
22872;BME280;11603;44.910;8.630;2023-06-19T05:03:44;100601.41;;;22.04;100.00
22872;BME280;11603;44.910;8.630;2023-06-19T05:06:10;100608.75;;;22.03;100.00
22872;BME280;11603;44.910;8.630;2023-06-19T05:08:36;100602.97;;;21.98;100.00
22872;BME280;11603;44.910;8.630;2023-06-19T05:11:02;100601.25;;;21.97;100.00
22872;BME280;11603;44.910;8.630;2023-06-19T05:13:27;100608.22;;;22.00;100.00
22872;BME280;11603;44.910;8.630;2023-06-19T05:15:53;100603.47;;;22.02;100.00
22872;BME280;11603;44.910;8.630;2023-06-19T05:18:18;100605.00;;;22.04;100.00
22872;BME280;11603;44.910;8.630;2023-06-19T05:20:44;100595.47;;;22.08;100.00
22872;BME280;11603;44.910;8.630;2023-06-19T05:23:10;100600.41;;;22.13;100.00
22872;BME280;11603;44.910;8.630;2023-06-19T05:25:36;100609.09;;;22.16;100.00
22872;BME280;11603;44.910;8.630;2023-06-19T05:28:01;100615.91;;;22.12;100.00
22872;BME280;11603;44.910;8.630;2023-06-19T05:30:27;100613.03;;;22.14;100.00
22872;BME280;11603;44.910;8.630;2023-06-19T05:32:52;100617.09;;;22.18;100.00
22872;BME280;11603;44.910;8.630;2023-06-19T05:35:18;100613.03;;;22.22;100.00
22872;BME280;11603;44.910;8.630;2023-06-19T05:37:44;100617.63;;;22.29;100.00
22872;BME280;11603;44.910;8.630;2023-06-19T05:40:10;100625.28;;;22.34;100.00
22872;BME280;11603;44.910;8.630;2023-06-19T05:42:40;100621.03;;;22.39;100.00
22872;BME280;11603;44.910;8.630;2023-06-19T05:45:06;100627.50;;;22.38;100.00
22872;BME280;11603;44.910;8.630;2023-06-19T05:47:32;100621.03;;;22.39;100.00
22872;BME280;11603;44.910;8.630;2023-06-19T05:49:58;100622.56;;;22.42;100.00
22872;BME280;11603;44.910;8.630;2023-06-19T05:52:23;100608.94;;;22.50;100.00
22872;BME280;11603;44.910;8.630;2023-06-19T05:54:49;100612.13;;;22.62;100.00
22872;BME280;11603;44.910;8.630;2023-06-19T05:57:15;100612.47;;;22.67;100.00
22872;BME280;11603;44.910;8.630;2023-06-19T05:59:42;100621.00;;;22.72;100.00
22872;BME280;11603;44.910;8.630;2023-06-19T06:02:07;100621.03;;;22.80;100.00
22872;BME280;11603;44.910;8.630;2023-06-19T06:04:34;100615.56;;;22.80;100.00
22872;BME280;11603;44.910;8.630;2023-06-19T06:07:00;100620.97;;;22.96;100.00
22872;BME280;11603;44.910;8.630;2023-06-19T06:09:25;100628.28;;;23.04;100.00
22872;BME280;11603;44.910;8.630;2023-06-19T06:11:52;100627.41;;;23.11;100.00
22872;BME280;11603;44.910;8.630;2023-06-19T06:14:17;100628.81;;;23.07;100.00
22872;BME280;11603;44.910;8.630;2023-06-19T06:16:44;100635.44;;;23.05;100.00
22872;BME280;11603;44.910;8.630;2023-06-19T06:19:09;100644.50;;;23.05;100.00
22872;BME280;11603;44.910;8.630;2023-06-19T06:21:35;100642.63;;;23.06;100.00
22872;BME280;11603;44.910;8.630;2023-06-19T06:24:01;100644.16;;;23.00;100.00
22872;BME280;11603;44.910;8.630;2023-06-19T06:26:27;100643.78;;;23.11;100.00
22872;BME280;11603;44.910;8.630;2023-06-19T06:28:53;100641.22;;;23.18;100.00
22872;BME280;11603;44.910;8.630;2023-06-19T06:31:19;100645.94;;;23.24;100.00
22872;BME280;11603;44.910;8.630;2023-06-19T06:33:44;100647.00;;;23.23;100.00
22872;BME280;11603;44.910;8.630;2023-06-19T06:36:10;100657.03;;;23.31;100.00
22872;BME280;11603;44.910;8.630;2023-06-19T06:38:35;100651.34;;;23.40;100.00
22872;BME280;11603;44.910;8.630;2023-06-19T06:41:01;100650.16;;;23.43;100.00
22872;BME280;11603;44.910;8.630;2023-06-19T06:43:27;100660.06;;;23.44;100.00
22872;BME280;11603;44.910;8.630;2023-06-19T06:45:53;100653.91;;;23.42;100.00
22872;BME280;11603;44.910;8.630;2023-06-19T06:48:18;100667.75;;;23.40;100.00
22872;BME280;11603;44.910;8.630;2023-06-19T06:50:44;100670.69;;;23.31;100.00
22872;BME280;11603;44.910;8.630;2023-06-19T06:53:09;100664.56;;;23.29;100.00
22872;BME280;11603;44.910;8.630;2023-06-19T06:55:35;100670.84;;;23.37;100.00
22872;BME280;11603;44.910;8.630;2023-06-19T06:58:01;100677.47;;;23.43;100.00
22872;BME280;11603;44.910;8.630;2023-06-19T07:00:26;100671.50;;;23.47;100.00
22872;BME280;11603;44.910;8.630;2023-06-19T07:02:52;100675.38;;;23.61;100.00
22872;BME280;11603;44.910;8.630;2023-06-19T07:05:18;100676.38;;;23.68;100.00
22872;BME280;11603;44.910;8.630;2023-06-19T07:07:43;100669.66;;;23.79;100.00
22872;BME280;11603;44.910;8.630;2023-06-19T07:10:09;100674.25;;;23.86;100.00
22872;BME280;11603;44.910;8.630;2023-06-19T07:12:35;100669.41;;;23.96;100.00
22872;BME280;11603;44.910;8.630;2023-06-19T07:15:01;100661.63;;;24.08;100.00
22872;BME280;11603;44.910;8.630;2023-06-19T07:17:27;100660.88;;;24.22;100.00
22872;BME280;11603;44.910;8.630;2023-06-19T07:19:52;100659.06;;;24.37;100.00
22872;BME280;11603;44.910;8.630;2023-06-19T07:22:17;100661.88;;;24.67;100.00
22872;BME280;11603;44.910;8.630;2023-06-19T07:24:43;100658.13;;;24.82;100.00
22872;BME280;11603;44.910;8.630;2023-06-19T07:27:08;100654.81;;;24.95;100.00
22872;BME280;11603;44.910;8.630;2023-06-19T07:29:34;100658.75;;;24.93;100.00
22872;BME280;11603;44.910;8.630;2023-06-19T07:31:59;100650.19;;;24.96;100.00
22872;BME280;11603;44.910;8.630;2023-06-19T07:34:27;100648.38;;;24.88;100.00
22872;BME280;11603;44.910;8.630;2023-06-19T07:36:53;100644.22;;;24.92;100.00
22872;BME280;11603;44.910;8.630;2023-06-19T07:39:18;100646.72;;;25.02;100.00
22872;BME280;11603;44.910;8.630;2023-06-19T07:41:44;100647.00;;;25.07;100.00
22872;BME280;11603;44.910;8.630;2023-06-19T07:44:11;100642.63;;;25.12;100.00
22872;BME280;11603;44.910;8.630;2023-06-19T07:46:36;100642.63;;;25.12;100.00
22872;BME280;11603;44.910;8.630;2023-06-19T07:49:02;100649.91;;;25.20;100.00
22872;BME280;11603;44.910;8.630;2023-06-19T07:51:28;100650.03;;;25.26;100.00
22872;BME280;11603;44.910;8.630;2023-06-19T07:53:53;100648.69;;;25.37;100.00
22872;BME280;11603;44.910;8.630;2023-06-19T07:56:19;100653.19;;;25.45;100.00
22872;BME280;11603;44.910;8.630;2023-06-19T07:58:44;100654.06;;;25.45;100.00
22872;BME280;11603;44.910;8.630;2023-06-19T08:01:09;100651.13;;;25.47;100.00
22872;BME280;11603;44.910;8.630;2023-06-19T08:03:35;100656.50;;;25.55;100.00
22872;BME280;11603;44.910;8.630;2023-06-19T08:06:01;100649.53;;;25.67;100.00
22872;BME280;11603;44.910;8.630;2023-06-19T08:08:26;100644.22;;;25.80;100.00
22872;BME280;11603;44.910;8.630;2023-06-19T08:10:52;100644.56;;;25.92;100.00
22872;BME280;11603;44.910;8.630;2023-06-19T08:13:17;100649.34;;;26.04;100.00
22872;BME280;11603;44.910;8.630;2023-06-19T08:15:42;100647.13;;;26.14;100.00
22872;BME280;11603;44.910;8.630;2023-06-19T08:18:09;100637.47;;;26.19;100.00
22872;BME280;11603;44.910;8.630;2023-06-19T08:20:35;100644.75;;;26.26;100.00
22872;BME280;11603;44.910;8.630;2023-06-19T08:23:00;100641.88;;;26.34;100.00
22872;BME280;11603;44.910;8.630;2023-06-19T08:25:26;100644.75;;;26.47;100.00
22872;BME280;11603;44.910;8.630;2023-06-19T08:27:51;100642.13;;;26.61;100.00
22872;BME280;11603;44.910;8.630;2023-06-19T08:30:16;100646.38;;;26.63;100.00
22872;BME280;11603;44.910;8.630;2023-06-19T08:32:43;100645.91;;;26.60;100.00
22872;BME280;11603;44.910;8.630;2023-06-19T08:35:08;100651.72;;;26.50;100.00
22872;BME280;11603;44.910;8.630;2023-06-19T08:37:34;100638.75;;;26.59;100.00
22872;BME280;11603;44.910;8.630;2023-06-19T08:39:59;100636.50;;;26.69;100.00
22872;BME280;11603;44.910;8.630;2023-06-19T08:42:25;100632.94;;;26.75;100.00
22872;BME280;11603;44.910;8.630;2023-06-19T08:44:50;100633.84;;;26.82;100.00
22872;BME280;11603;44.910;8.630;2023-06-19T08:47:29;100627.69;;;26.80;100.00
22872;BME280;11603;44.910;8.630;2023-06-19T08:49:55;100629.31;;;26.95;100.00
22872;BME280;11603;44.910;8.630;2023-06-19T08:52:21;100624.38;;;27.12;100.00
22872;BME280;11603;44.910;8.630;2023-06-19T08:54:46;100615.56;;;27.23;100.00
22872;BME280;11603;44.910;8.630;2023-06-19T08:57:12;100615.41;;;27.31;100.00
22872;BME280;11603;44.910;8.630;2023-06-19T08:59:37;100623.66;;;27.31;100.00
22872;BME280;11603;44.910;8.630;2023-06-19T09:02:03;100617.56;;;27.42;100.00
22872;BME280;11603;44.910;8.630;2023-06-19T09:04:30;100615.34;;;27.53;100.00
22872;BME280;11603;44.910;8.630;2023-06-19T09:07:01;100615.34;;;27.59;100.00
22872;BME280;11603;44.910;8.630;2023-06-19T09:09:31;100607.56;;;27.69;100.00
22872;BME280;11603;44.910;8.630;2023-06-19T09:12:05;100608.00;;;27.73;100.00
22872;BME280;11603;44.910;8.630;2023-06-19T09:14:38;100606.72;;;27.75;100.00
22872;BME280;11603;44.910;8.630;2023-06-19T09:17:05;100602.13;;;27.83;100.00
22872;BME280;11603;44.910;8.630;2023-06-19T09:19:32;100607.00;;;27.87;100.00
22872;BME280;11603;44.910;8.630;2023-06-19T09:22:05;100605.97;;;27.95;100.00
22872;BME280;11603;44.910;8.630;2023-06-19T09:24:41;100598.75;;;27.94;100.00
22872;BME280;11603;44.910;8.630;2023-06-19T09:27:10;100601.53;;;28.07;100.00
22872;BME280;11603;44.910;8.630;2023-06-19T09:29:40;100604.97;;;28.22;100.00
22872;BME280;11603;44.910;8.630;2023-06-19T09:32:25;100595.25;;;28.19;100.00
22872;BME280;11603;44.910;8.630;2023-06-19T09:34:55;100594.84;;;28.36;100.00
22872;BME280;11603;44.910;8.630;2023-06-19T09:37:30;100601.19;;;28.56;100.00
22872;BME280;11603;44.910;8.630;2023-06-19T09:40:01;100608.78;;;28.21;100.00
22872;BME280;11603;44.910;8.630;2023-06-19T09:42:41;100602.25;;;28.35;100.00
22872;BME280;11603;44.910;8.630;2023-06-19T09:45:22;100593.34;;;28.53;100.00
22872;BME280;11603;44.910;8.630;2023-06-19T09:47:52;100599.06;;;28.58;100.00
22872;BME280;11603;44.910;8.630;2023-06-19T09:50:22;100596.31;;;28.64;100.00
22872;BME280;11603;44.910;8.630;2023-06-19T09:52:55;100592.53;;;28.72;100.00
22872;BME280;11603;44.910;8.630;2023-06-19T09:55:22;100594.63;;;28.57;100.00
22872;BME280;11603;44.910;8.630;2023-06-19T09:57:49;100602.25;;;28.81;100.00
22872;BME280;11603;44.910;8.630;2023-06-19T10:00:16;100601.00;;;28.77;100.00
22872;BME280;11603;44.910;8.630;2023-06-19T10:02:48;100597.81;;;28.87;100.00
22872;BME280;11603;44.910;8.630;2023-06-19T10:05:14;100598.59;;;29.00;100.00
22872;BME280;11603;44.910;8.630;2023-06-19T10:07:44;100600.69;;;29.25;100.00
22872;BME280;11603;44.910;8.630;2023-06-19T10:10:12;100602.16;;;29.27;100.00
22872;BME280;11603;44.910;8.630;2023-06-19T10:12:47;100606.84;;;29.20;100.00
22872;BME280;11603;44.910;8.630;2023-06-19T10:15:16;100608.09;;;29.24;100.00
22872;BME280;11603;44.910;8.630;2023-06-19T10:17:48;100607.47;;;29.35;100.00
22872;BME280;11603;44.910;8.630;2023-06-19T10:20:27;100597.69;;;29.46;100.00
22872;BME280;11603;44.910;8.630;2023-06-19T10:23:02;100597.47;;;29.41;100.00
22872;BME280;11603;44.910;8.630;2023-06-19T10:25:30;100594.25;;;29.57;100.00
22872;BME280;11603;44.910;8.630;2023-06-19T10:27:57;100593.13;;;29.65;99.90
22872;BME280;11603;44.910;8.630;2023-06-19T10:30:23;100589.88;;;29.81;99.79
22872;BME280;11603;44.910;8.630;2023-06-19T10:32:49;100590.75;;;29.75;99.45
22872;BME280;11603;44.910;8.630;2023-06-19T10:35:16;100590.06;;;29.79;98.76
22872;BME280;11603;44.910;8.630;2023-06-19T10:37:43;100584.13;;;29.82;97.59
22872;BME280;11603;44.910;8.630;2023-06-19T10:40:10;100578.56;;;29.96;98.57
22872;BME280;11603;44.910;8.630;2023-06-19T10:42:38;100586.34;;;30.05;97.22
22872;BME280;11603;44.910;8.630;2023-06-19T10:45:06;100581.75;;;30.24;96.96
22872;BME280;11603;44.910;8.630;2023-06-19T10:47:35;100576.75;;;30.14;95.02
22872;BME280;11603;44.910;8.630;2023-06-19T10:50:01;100584.75;;;30.22;96.36
22872;BME280;11603;44.910;8.630;2023-06-19T10:52:31;100576.97;;;30.38;96.17
22872;BME280;11603;44.910;8.630;2023-06-19T10:54:57;100577.19;;;30.36;95.78
22872;BME280;11603;44.910;8.630;2023-06-19T10:57:27;100580.38;;;30.40;95.08
22872;BME280;11603;44.910;8.630;2023-06-19T10:59:52;100572.47;;;30.43;94.91
22872;BME280;11603;44.910;8.630;2023-06-19T11:02:18;100584.09;;;30.52;95.19
22872;BME280;11603;44.910;8.630;2023-06-19T11:04:44;100568.81;;;30.74;94.23
22872;BME280;11603;44.910;8.630;2023-06-19T11:07:09;100564.84;;;30.88;90.98
22872;BME280;11603;44.910;8.630;2023-06-19T11:09:35;100565.63;;;30.77;92.95
22872;BME280;11603;44.910;8.630;2023-06-19T11:12:01;100560.25;;;31.00;92.82
22872;BME280;11603;44.910;8.630;2023-06-19T11:14:29;100563.97;;;31.12;90.72
22872;BME280;11603;44.910;8.630;2023-06-19T11:16:55;100566.66;;;31.37;88.72
22872;BME280;11603;44.910;8.630;2023-06-19T11:19:21;100560.31;;;31.19;88.88
22872;BME280;11603;44.910;8.630;2023-06-19T11:21:50;100558.75;;;30.61;92.77
22872;BME280;11603;44.910;8.630;2023-06-19T11:24:15;100552.63;;;30.28;95.21
22872;BME280;11603;44.910;8.630;2023-06-19T11:26:42;100560.53;;;30.24;94.79
22872;BME280;11603;44.910;8.630;2023-06-19T11:29:18;100562.44;;;30.24;96.59
22872;BME280;11603;44.910;8.630;2023-06-19T11:31:45;100565.47;;;30.16;96.72
22872;BME280;11603;44.910;8.630;2023-06-19T11:34:11;100559.00;;;30.28;96.25
22872;BME280;11603;44.910;8.630;2023-06-19T11:36:37;100555.88;;;30.25;96.67
22872;BME280;11603;44.910;8.630;2023-06-19T11:39:03;100549.53;;;30.49;95.41
22872;BME280;11603;44.910;8.630;2023-06-19T11:41:32;100546.25;;;30.59;94.86
22872;BME280;11603;44.910;8.630;2023-06-19T11:44:05;100534.81;;;30.73;93.97
22872;BME280;11603;44.910;8.630;2023-06-19T11:46:32;100528.75;;;30.83;95.33
22872;BME280;11603;44.910;8.630;2023-06-19T11:49:16;100529.19;;;30.87;94.29
22872;BME280;11603;44.910;8.630;2023-06-19T11:51:43;100536.16;;;30.89;95.12
22872;BME280;11603;44.910;8.630;2023-06-19T11:54:10;100529.56;;;30.90;93.13
22872;BME280;11603;44.910;8.630;2023-06-19T11:56:39;100519.66;;;31.01;91.33
22872;BME280;11603;44.910;8.630;2023-06-19T11:59:05;100525.88;;;31.14;90.16
22872;BME280;11603;44.910;8.630;2023-06-19T12:01:35;100516.66;;;31.39;88.73
22872;BME280;11603;44.910;8.630;2023-06-19T12:04:01;100524.06;;;31.56;87.64
22872;BME280;11603;44.910;8.630;2023-06-19T12:06:27;100515.66;;;31.33;85.13
22872;BME280;11603;44.910;8.630;2023-06-19T12:08:53;100517.09;;;31.54;84.48
22872;BME280;11603;44.910;8.630;2023-06-19T12:11:19;100508.06;;;31.77;82.23
22872;BME280;11603;44.910;8.630;2023-06-19T12:13:44;100510.72;;;31.83;83.43
22872;BME280;11603;44.910;8.630;2023-06-19T12:16:10;100510.34;;;31.50;83.93
22872;BME280;11603;44.910;8.630;2023-06-19T12:18:36;100509.09;;;31.46;85.76
22872;BME280;11603;44.910;8.630;2023-06-19T12:21:02;100501.44;;;31.78;86.16
22872;BME280;11603;44.910;8.630;2023-06-19T12:23:27;100501.22;;;31.79;84.76
22872;BME280;11603;44.910;8.630;2023-06-19T12:25:53;100501.38;;;31.96;84.96
22872;BME280;11603;44.910;8.630;2023-06-19T12:28:18;100499.28;;;31.80;84.73
22872;BME280;11603;44.910;8.630;2023-06-19T12:30:44;100493.75;;;31.80;85.45
22872;BME280;11603;44.910;8.630;2023-06-19T12:33:11;100495.34;;;31.87;84.55
22872;BME280;11603;44.910;8.630;2023-06-19T12:35:40;100493.63;;;31.75;83.77
22872;BME280;11603;44.910;8.630;2023-06-19T12:38:07;100477.41;;;31.90;82.31
22872;BME280;11603;44.910;8.630;2023-06-19T12:40:33;100490.38;;;31.66;85.74
22872;BME280;11603;44.910;8.630;2023-06-19T12:42:58;100486.88;;;31.23;86.75